Time;durP1;ratioP1;P1;durP2;ratioP2;P2;SDS_P1;SDS_P2;PMS_P1;PMS_P2;Temp;Humidity;BMP_temperature;BMP_pressure;BME280_temperature;BME280_humidity;BME280_pressure;Samples;Min_cycle;Max_cycle;Signal;HPM_P1;HPM_P2
2021/10/29 00:01:10;;;;;;;26.75;16.25;;;;;;;3.80;72.06;97790.06;1687193;83;25795;-84
2021/10/29 00:03:37;;;;;;;27.40;16.93;;;;;;;3.80;72.11;97791.89;1687075;83;27384;-82
2021/10/29 00:06:05;;;;;;;24.82;16.30;;;;;;;3.83;72.22;97790.25;1687039;83;26352;-83
2021/10/29 00:08:31;;;;;;;29.18;17.57;;;;;;;3.84;72.17;97794.09;1687097;83;25788;-84
2021/10/29 00:10:58;;;;;;;33.18;17.30;;;;;;;3.86;72.13;97796.11;1687104;83;26242;-83
2021/10/29 00:13:24;;;;;;;34.53;17.32;;;;;;;3.87;72.17;97795.09;1687121;83;25816;-83
2021/10/29 00:15:51;;;;;;;34.08;17.05;;;;;;;3.88;72.25;97798.59;1687058;83;27369;-82
2021/10/29 00:18:18;;;;;;;32.05;17.10;;;;;;;3.87;72.26;97791.08;1686955;84;25757;-83
2021/10/29 00:20:44;;;;;;;30.90;16.10;;;;;;;3.87;72.34;97795.09;1687058;83;25820;-82
2021/10/29 00:23:11;;;;;;;25.35;15.03;;;;;;;3.85;72.54;97791.77;1686964;83;26065;-83
2021/10/29 00:25:37;;;;;;;26.00;15.30;;;;;;;3.84;72.60;97790.09;1686898;83;25746;-83
2021/10/29 00:28:05;;;;;;;30.45;15.38;;;;;;;3.83;72.65;97792.42;1687135;83;27436;-82
2021/10/29 00:30:31;;;;;;;26.48;14.47;;;;;;;3.84;72.90;97793.26;1686924;84;25289;-84
2021/10/29 00:32:58;;;;;;;24.43;15.00;;;;;;;3.84;73.00;97795.92;1687127;83;26453;-82
2021/10/29 00:35:24;;;;;;;26.93;15.40;;;;;;;3.82;73.06;97789.41;1687076;83;25736;-83
2021/10/29 00:37:51;;;;;;;25.30;14.38;;;;;;;3.86;73.10;97793.44;1687335;83;25693;-85
2021/10/29 00:40:17;;;;;;;29.18;14.93;;;;;;;3.87;72.99;97787.08;1696884;83;27363;-83
2021/10/29 00:42:44;;;;;;;27.00;15.50;;;;;;;3.90;73.00;97791.27;1687050;83;25674;-83
2021/10/29 00:45:11;;;;;;;24.65;14.90;;;;;;;3.91;72.99;97780.92;1687249;83;25773;-81
2021/10/29 00:47:38;;;;;;;29.07;15.40;;;;;;;3.93;72.93;97780.27;1687153;83;26013;-82
2021/10/29 00:50:06;;;;;;;29.48;15.30;;;;;;;3.91;72.89;97782.26;1691004;83;25773;-83
2021/10/29 00:52:33;;;;;;;29.00;15.72;;;;;;;3.90;72.91;97782.75;1687072;83;27457;-83
2021/10/29 00:55:01;;;;;;;29.75;15.85;;;;;;;3.84;73.01;97776.73;1687164;83;26371;-83
2021/10/29 00:57:28;;;;;;;31.12;16.45;;;;;;;3.83;72.95;97786.23;1687172;83;25868;-82
2021/10/29 00:59:55;;;;;;;28.27;16.27;;;;;;;3.82;73.00;97776.05;1687146;83;25995;-83
2021/10/29 01:02:21;;;;;;;32.28;16.97;;;;;;;3.80;73.00;97776.70;1687302;84;26332;-82
2021/10/29 01:04:48;;;;;;;25.52;15.75;;;;;;;3.81;73.03;97778.38;1687298;83;27358;-85
2021/10/29 01:07:15;;;;;;;31.35;16.23;;;;;;;3.80;73.00;97767.36;1687121;83;25782;-84
2021/10/29 01:09:41;;;;;;;29.55;15.88;;;;;;;3.81;73.02;97763.70;1687261;84;25805;-85
2021/10/29 01:12:08;;;;;;;28.32;15.63;;;;;;;3.74;72.94;97768.02;1687235;83;26793;-83
2021/10/29 01:14:35;;;;;;;24.92;14.58;;;;;;;3.71;73.05;97768.83;1687135;83;25712;-83
2021/10/29 01:17:02;;;;;;;22.40;13.90;;;;;;;3.70;73.13;97759.98;1698536;83;27377;-84
2021/10/29 01:19:32;;;;;;;25.25;14.65;;;;;;;3.72;73.22;97764.66;1687289;83;25858;-84
2021/10/29 01:21:59;;;;;;;21.23;13.93;;;;;;;3.70;73.13;97759.14;1687125;83;25698;-83
2021/10/29 01:24:25;;;;;;;24.95;14.25;;;;;;;3.71;73.26;97758.98;1687204;83;26849;-83
2021/10/29 01:26:52;;;;;;;25.20;15.58;;;;;;;3.71;73.36;97748.80;1687247;84;25751;-83
2021/10/29 01:29:20;;;;;;;23.85;14.43;;;;;;;3.69;73.32;97746.28;1687161;83;27265;-83
2021/10/29 01:31:48;;;;;;;25.15;13.80;;;;;;;3.68;73.28;97741.94;1687164;83;26019;-83
2021/10/29 01:34:14;;;;;;;28.40;15.23;;;;;;;3.68;73.28;97740.61;1687002;83;25773;-83
2021/10/29 01:36:41;;;;;;;28.00;14.55;;;;;;;3.69;73.28;97738.28;1687283;84;25748;-83
2021/10/29 01:39:07;;;;;;;29.85;16.10;;;;;;;3.68;73.29;97741.10;1687766;83;25767;-84
2021/10/29 01:41:34;;;;;;;28.90;14.78;;;;;;;3.66;73.28;97735.92;1687195;83;27442;-85
2021/10/29 01:44:02;;;;;;;24.37;14.18;;;;;;;3.61;73.19;97735.58;1687130;84;25700;-85
2021/10/29 01:46:29;;;;;;;22.07;12.65;;;;;;;3.58;73.14;97731.89;1687127;83;25777;-82
2021/10/29 01:48:56;;;;;;;24.92;14.13;;;;;;;3.55;73.27;97738.88;1687201;84;26663;-83
2021/10/29 01:51:22;;;;;;;22.93;14.05;;;;;;;3.53;73.37;97732.85;1687161;83;25748;-83
2021/10/29 01:53:49;;;;;;;24.40;14.47;;;;;;;3.51;73.56;97728.16;1687209;83;28158;-81
2021/10/29 01:56:16;;;;;;;23.45;14.70;;;;;;;3.47;73.65;97726.83;1687065;83;25740;-83
2021/10/29 01:58:42;;;;;;;26.97;14.25;;;;;;;3.43;73.93;97724.13;1708216;83;25713;-83
2021/10/29 02:01:09;;;;;;;27.07;15.05;;;;;;;3.42;73.93;97724.63;1687674;83;26588;-83
2021/10/29 02:03:35;;;;;;;27.37;14.75;;;;;;;3.45;73.87;97720.31;1687872;83;26525;-82
2021/10/29 02:06:02;;;;;;;26.52;14.20;;;;;;;3.46;73.84;97721.98;1687224;83;28468;-83
2021/10/29 02:08:29;;;;;;;22.65;13.40;;;;;;;3.40;74.05;97717.27;1686937;84;25819;-82
2021/10/29 02:10:56;;;;;;;19.35;12.88;;;;;;;3.36;74.16;97715.09;1687178;83;26368;-83
2021/10/29 02:13:23;;;;;;;19.37;12.58;;;;;;;3.35;74.18;97714.76;1687043;83;25938;-84
2021/10/29 02:15:50;;;;;;;19.62;12.28;;;;;;;3.35;74.27;97716.93;1687224;83;25717;-83
2021/10/29 02:18:17;;;;;;;25.00;13.83;;;;;;;3.35;74.21;97712.92;1687329;84;27426;-83
2021/10/29 02:20:44;;;;;;;19.95;12.80;;;;;;;3.37;74.21;97708.77;1687252;83;25776;-83
2021/10/29 02:23:15;;;;;;;22.80;13.43;;;;;;;3.38;74.18;97710.44;1687247;84;25793;-83
2021/10/29 02:25:46;;;;;;;22.37;13.45;;;;;;;3.40;74.12;97709.27;1687067;83;26044;-83
2021/10/29 02:28:15;;;;;;;26.55;13.68;;;;;;;3.42;74.09;97698.44;1687278;83;25745;-84
2021/10/29 02:30:43;;;;;;;24.25;12.82;;;;;;;3.41;74.08;97704.77;1691570;83;27436;-84
2021/10/29 02:33:10;;;;;;;26.02;13.80;;;;;;;3.43;74.10;97706.28;1691459;83;25286;-84
2021/10/29 02:35:37;;;;;;;20.57;12.20;;;;;;;3.43;74.07;97700.11;1691437;83;25757;-84
2021/10/29 02:38:04;;;;;;;25.08;13.78;;;;;;;3.44;74.10;97697.78;1691602;83;25971;-83
2021/10/29 02:40:31;;;;;;;20.92;12.50;;;;;;;3.45;74.07;97698.13;1691827;84;25761;-83
2021/10/29 02:42:58;;;;;;;18.62;11.08;;;;;;;3.44;73.93;97689.28;1691615;83;27556;-83
2021/10/29 02:45:25;;;;;;;22.48;11.78;;;;;;;3.43;73.93;97692.10;1691437;83;25741;-84
2021/10/29 02:47:51;;;;;;;22.10;12.28;;;;;;;3.42;74.08;97699.77;1691599;83;25690;-83
2021/10/29 02:50:20;;;;;;;26.75;13.60;;;;;;;3.41;74.13;97691.42;1691793;83;26000;-86
2021/10/29 02:52:47;;;;;;;19.85;12.30;;;;;;;3.42;74.04;97694.44;1708869;83;26347;-83
2021/10/29 02:55:16;;;;;;;21.50;11.80;;;;;;;3.41;73.99;97694.09;1691364;83;27531;-83
2021/10/29 02:57:42;;;;;;;23.60;12.53;;;;;;;3.38;73.90;97693.09;1691560;83;25749;-84
2021/10/29 03:00:13;;;;;;;25.77;12.80;;;;;;;3.37;73.82;97694.09;1701342;82;25741;-84
2021/10/29 03:02:41;;;;;;;36.30;13.13;;;;;;;3.35;73.74;97689.41;1691683;83;25985;-83
2021/10/29 03:05:08;;;;;;;18.15;11.75;;;;;;;3.34;73.77;97690.40;1658221;85;25792;-87
2021/10/29 03:07:35;;;;;;;22.20;12.93;;;;;;;3.35;73.77;97689.41;1662353;85;27440;-84
2021/10/29 03:10:03;;;;;;;22.93;13.00;;;;;;;3.35;73.84;97686.73;1691546;83;25678;-84
2021/10/29 03:12:30;;;;;;;25.60;13.80;;;;;;;3.35;73.85;97688.07;1691557;83;25860;-83
2021/10/29 03:14:56;;;;;;;26.77;13.45;;;;;;;3.34;73.79;97689.06;1693640;83;26502;-85
2021/10/29 03:17:23;;;;;;;22.05;12.95;;;;;;;3.33;73.78;97688.73;1691546;84;26523;-83
2021/10/29 03:19:50;;;;;;;21.73;12.68;;;;;;;3.32;73.77;97681.72;1698856;83;27502;-83
2021/10/29 03:22:17;;;;;;;19.35;12.85;;;;;;;3.28;73.64;97681.19;1692042;83;26420;-86
2021/10/29 03:24:43;;;;;;;26.23;13.68;;;;;;;3.26;73.54;97690.67;1691560;83;25748;-83
2021/10/29 03:27:10;;;;;;;23.47;13.45;;;;;;;3.25;73.60;97694.38;1695299;83;26437;-84
2021/10/29 03:29:38;;;;;;;24.23;15.00;;;;;;;3.23;73.63;97692.35;1691634;83;25852;-82
2021/10/29 03:32:05;;;;;;;26.68;14.00;;;;;;;3.21;73.60;97691.67;1691610;83;28066;-85
2021/10/29 03:34:32;;;;;;;25.20;13.80;;;;;;;3.21;73.64;97687.67;1691510;83;25807;-84
2021/10/29 03:36:59;;;;;;;25.02;15.58;;;;;;;3.20;73.61;97685.99;1691364;83;25758;-84
2021/10/29 03:39:32;;;;;;;30.65;18.07;;;;;;;3.21;73.61;97685.50;1691478;83;26761;-83
2021/10/29 03:42:05;;;;;;;36.25;18.82;;;;;;;3.17;73.67;97682.30;1691274;83;25703;-83
2021/10/29 03:44:57;;;;;;;35.03;16.93;;;;;;;3.11;73.89;97685.61;1690741;83;27463;-83
2021/10/29 03:46:58;;;;;;;31.75;15.58;;;;;;;3.05;74.00;97678.23;1684555;83;26294;-83
2021/10/29 03:52:13;;;;;;;34.95;18.12;;;;;;;2.96;74.28;97684.52;1650983;81;26585;-84
2021/10/29 03:54:33;;;;;;;43.58;22.17;;;;;;;2.97;74.37;97675.52;1698736;83;25838;-83
2021/10/29 03:59:29;;;;;;;42.80;20.82;;;;;;;2.96;74.36;97678.34;1696928;84;25979;-83
2021/10/29 04:01:57;;;;;;;42.90;22.20;;;;;;;2.87;74.43;97675.63;1697169;83;25679;-83
2021/10/29 04:04:24;;;;;;;54.85;27.00;;;;;;;2.82;74.67;97677.92;1699950;83;26055;-83
2021/10/29 04:06:50;;;;;;;59.10;26.73;;;;;;;2.83;74.73;97674.76;1697257;83;25855;-83
2021/10/29 04:09:17;;;;;;;57.40;25.08;;;;;;;2.82;74.67;97674.41;1696877;83;27595;-83
2021/10/29 04:11:44;;;;;;;49.48;24.25;;;;;;;2.82;74.77;97665.08;1696784;83;25717;-83
2021/10/29 04:14:12;;;;;;;41.30;21.85;;;;;;;2.79;74.91;97672.05;1702481;83;25810;-83
2021/10/29 04:16:40;;;;;;;34.65;18.55;;;;;;;2.75;74.98;97670.71;1697310;83;27003;-84
2021/10/29 04:19:09;;;;;;;32.90;18.25;;;;;;;2.76;75.07;97669.72;1710527;82;25818;-83
2021/10/29 04:21:37;;;;;;;31.85;17.70;;;;;;;2.80;75.15;97665.73;1696926;84;28193;-82
2021/10/29 04:24:05;;;;;;;33.73;19.48;;;;;;;2.82;75.26;97668.59;1696758;83;26508;-82
2021/10/29 04:26:33;;;;;;;38.88;19.67;;;;;;;2.84;75.19;97667.10;1696883;83;25741;-82
2021/10/29 04:29:01;;;;;;;40.52;20.50;;;;;;;2.86;75.15;97665.12;1699279;83;26065;-83
2021/10/29 04:31:31;;;;;;;47.67;26.10;;;;;;;2.88;75.03;97664.47;1697276;84;26048;-83
2021/10/29 04:33:58;;;;;;;43.60;22.05;;;;;;;2.88;74.97;97662.64;1697286;83;28255;-82
2021/10/29 04:36:24;;;;;;;35.83;18.95;;;;;;;2.83;75.18;97665.42;1697063;82;25792;-82
2021/10/29 04:38:51;;;;;;;41.25;18.70;;;;;;;2.76;75.27;97663.06;1696730;82;25279;-83
2021/10/29 04:41:18;;;;;;;47.03;20.70;;;;;;;2.74;75.41;97667.20;1696970;83;26122;-83
2021/10/29 04:43:44;;;;;;;38.88;18.25;;;;;;;2.75;75.38;97663.55;1696958;82;25860;-82
2021/10/29 04:46:11;;;;;;;45.00;21.82;;;;;;;2.75;75.42;97662.72;1696830;83;27521;-81
2021/10/29 04:48:37;;;;;;;40.85;20.45;;;;;;;2.77;75.60;97662.91;1696843;83;25790;-84
2021/10/29 04:51:04;;;;;;;42.85;21.85;;;;;;;2.75;75.72;97658.72;1697473;82;25811;-81
2021/10/29 04:53:30;;;;;;;40.35;21.07;;;;;;;2.72;75.85;97662.52;1696741;82;25981;-83
2021/10/29 04:55:57;;;;;;;43.08;19.82;;;;;;;2.75;75.89;97660.05;1695010;83;25760;-83
2021/10/29 04:58:24;;;;;;;41.73;17.75;;;;;;;2.78;75.87;97655.22;1695260;83;28310;-85
2021/10/29 05:00:50;;;;;;;38.55;17.80;;;;;;;2.81;75.83;97660.25;1684200;84;25736;-82
2021/10/29 05:03:17;;;;;;;37.88;18.25;;;;;;;2.82;75.79;97655.75;1693345;83;25720;-83
2021/10/29 05:05:43;;;;;;;41.63;18.67;;;;;;;2.82;75.88;97655.26;1695343;83;25948;-83
2021/10/29 05:08:10;;;;;;;36.30;18.40;;;;;;;2.79;75.92;97654.73;1695538;83;25541;-83
2021/10/29 05:10:37;;;;;;;36.45;19.65;;;;;;;2.81;75.89;97649.58;1669713;83;28325;-83
2021/10/29 05:13:03;;;;;;;34.13;19.60;;;;;;;2.85;75.89;97652.78;1695269;83;25820;-83
2021/10/29 05:15:30;;;;;;;34.20;17.73;;;;;;;2.86;75.86;97649.12;1690264;83;25879;-83
2021/10/29 05:17:57;;;;;;;32.78;17.57;;;;;;;2.83;75.86;97646.77;1694785;83;26123;-83
2021/10/29 05:20:24;;;;;;;29.37;17.40;;;;;;;2.82;75.81;97647.75;1695411;83;25722;-83
2021/10/29 05:22:50;;;;;;;30.60;16.62;;;;;;;2.79;75.79;97645.39;1676180;84;27467;-83
2021/10/29 05:25:17;;;;;;;27.17;16.62;;;;;;;2.78;75.90;97651.72;1695344;84;25680;-83
2021/10/29 05:27:43;;;;;;;55.67;30.50;;;;;;;2.80;75.94;97648.41;1699367;83;25763;-82
2021/10/29 05:30:11;;;;;;;36.35;21.33;;;;;;;2.84;76.06;97651.11;1688370;84;26015;-83
2021/10/29 05:32:38;;;;;;;31.27;18.82;;;;;;;2.87;76.05;97650.80;1687579;83;26565;-83
2021/10/29 05:35:06;;;;;;;36.88;21.17;;;;;;;2.89;76.00;97645.66;1695430;84;27369;-83
2021/10/29 05:37:35;;;;;;;37.23;20.27;;;;;;;2.91;75.91;97648.13;1691358;84;25858;-84
2021/10/29 05:40:04;;;;;;;40.28;21.82;;;;;;;2.93;75.90;97651.48;1693945;83;25815;-83
2021/10/29 05:42:33;;;;;;;40.17;22.07;;;;;;;2.93;75.91;97655.48;1698700;83;26004;-83
2021/10/29 05:45:00;;;;;;;43.00;23.75;;;;;;;2.97;75.95;97653.35;1697294;83;25798;-83
2021/10/29 05:47:28;;;;;;;41.73;22.85;;;;;;;2.98;75.91;97653.70;1700426;83;27616;-83
2021/10/29 05:49:55;;;;;;;45.63;23.60;;;;;;;2.98;75.91;97652.36;1693799;84;25744;-83
2021/10/29 05:52:23;;;;;;;41.88;24.10;;;;;;;2.99;75.84;97657.54;1693890;83;25724;-84
2021/10/29 05:57:24;;;;;;;41.08;22.07;;;;;;;3.00;75.86;97659.71;1691466;83;25815;-82
2021/10/29 05:59:52;;;;;;;39.30;23.18;;;;;;;3.02;75.93;97666.53;1691602;83;27459;-83
2021/10/29 06:02:21;;;;;;;40.92;22.93;;;;;;;3.03;75.93;97661.55;1691597;84;25793;-82
2021/10/29 06:04:48;;;;;;;40.80;21.75;;;;;;;3.05;75.89;97660.89;1691343;83;25840;-82
2021/10/29 06:07:15;;;;;;;47.53;22.52;;;;;;;3.04;76.00;97665.05;1674146;85;26070;-82
2021/10/29 06:09:42;;;;;;;42.10;21.48;;;;;;;2.99;76.00;97664.70;1691548;83;25781;-82
2021/10/29 06:12:08;;;;;;;37.85;22.13;;;;;;;2.96;76.11;97663.18;1691568;83;27475;-82
2021/10/29 06:14:36;;;;;;;44.98;24.37;;;;;;;2.98;76.22;97666.53;1691456;83;25336;-81
2021/10/29 06:17:06;;;;;;;42.33;23.55;;;;;;;3.00;76.36;97661.88;1659256;85;25699;-84
2021/10/29 06:19:31;;;;;;;47.83;26.05;;;;;;;3.05;76.45;97668.89;1659207;84;26189;-84
2021/10/29 06:24:28;;;;;;;42.60;21.73;;;;;;;3.12;76.75;97676.63;1662265;86;27407;-82
2021/10/29 06:27:02;;;;;;;42.73;24.07;;;;;;;3.15;77.01;97670.95;1662086;86;25298;-83
2021/10/29 06:29:23;;;;;;;46.45;24.57;;;;;;;3.21;76.95;97667.66;1661746;84;25751;-82
2021/10/29 06:31:50;;;;;;;45.80;23.85;;;;;;;3.29;76.89;97669.52;1663239;84;26185;-82
2021/10/29 06:34:17;;;;;;;40.88;22.17;;;;;;;3.34;76.91;97674.39;1662266;84;25733;-83
2021/10/29 06:36:44;;;;;;;40.98;21.87;;;;;;;3.40;76.92;97684.41;1685681;83;27505;-83
2021/10/29 06:39:10;;;;;;;45.15;22.67;;;;;;;3.46;76.93;97682.45;1671683;84;26425;-82
2021/10/29 06:41:37;;;;;;;37.25;22.55;;;;;;;3.54;76.95;97681.14;1701979;83;25870;-82
2021/10/29 06:46:46;;;;;;;43.17;22.27;;;;;;;3.69;76.82;97684.87;1691726;83;25403;-85
2021/10/29 06:52:19;;;;;;;43.05;22.65;;;;;;;3.83;77.14;97672.25;1691259;83;25933;-82
2021/10/29 07:02:59;;;;;;;40.05;22.55;;;;;;;4.25;77.29;97675.32;1659757;83;27349;-82
2021/10/29 07:40:42;;;;;;;25.88;14.18;;;;;;;6.47;76.56;97659.60;1691477;83;25765;-87
2021/10/29 07:43:09;;;;;;;24.45;13.80;;;;;;;6.75;76.45;97655.36;1689401;83;27478;-85
2021/10/29 07:45:35;;;;;;;21.30;13.60;;;;;;;7.03;76.36;97655.58;1690234;83;25857;-84
2021/10/29 07:48:02;;;;;;;18.55;12.93;;;;;;;7.32;76.03;97647.23;1691475;83;25800;-84
2021/10/29 07:50:28;;;;;;;21.68;13.30;;;;;;;7.56;75.58;97655.84;1691456;83;25949;-83
2021/10/29 07:53:00;;;;;;;16.65;10.15;;;;;;;7.81;75.22;97644.79;1691373;84;25700;-85
2021/10/29 07:55:29;;;;;;;12.90;9.70;;;;;;;8.07;74.59;97641.07;1695897;82;28441;-84
2021/10/29 07:58:02;;;;;;;17.50;10.08;;;;;;;8.37;73.62;97649.05;1686062;84;25766;-85
2021/10/29 08:00:26;;;;;;;16.45;9.95;;;;;;;8.65;73.07;97648.10;1685100;83;25824;-86
2021/10/29 08:02:54;;;;;;;17.20;9.00;;;;;;;8.93;72.56;97650.00;1684360;84;26170;-84
2021/10/29 08:05:21;;;;;;;14.83;8.58;;;;;;;9.21;72.07;97648.63;1684320;85;25250;-85
2021/10/29 08:07:49;;;;;;;12.53;7.50;;;;;;;9.51;71.60;97647.39;1684336;85;27919;-83
2021/10/29 08:10:16;;;;;;;10.05;7.25;;;;;;;9.81;71.00;97641.72;1685187;84;25709;-85
2021/10/29 08:12:43;;;;;;;12.88;7.25;;;;;;;10.10;70.30;97644.96;1691282;83;25494;-85
2021/10/29 08:15:10;;;;;;;11.63;7.40;;;;;;;10.40;69.26;97644.13;1698161;82;26208;-85
2021/10/29 08:17:38;;;;;;;10.60;6.87;;;;;;;10.71;68.51;97644.09;1698483;83;25751;-88
2021/10/29 08:20:09;;;;;;;12.43;6.92;;;;;;;11.02;67.86;97634.00;1698121;83;27368;-85
2021/10/29 08:22:37;;;;;;;14.78;7.05;;;;;;;11.38;67.43;97645.70;1657295;84;25811;-85
2021/10/29 08:25:05;;;;;;;12.03;6.55;;;;;;;11.72;66.44;97643.23;1668863;84;25856;-85
2021/10/29 08:27:32;;;;;;;10.95;6.50;;;;;;;12.05;65.48;97639.11;1696781;83;26938;-84
2021/10/29 08:29:59;;;;;;;12.40;6.15;;;;;;;12.40;64.45;97639.55;1686283;84;25778;-83
2021/10/29 08:32:26;;;;;;;9.18;6.33;;;;;;;12.71;63.61;97640.06;1695495;83;27375;-84
2021/10/29 08:34:52;;;;;;;11.22;6.92;;;;;;;13.02;62.85;97633.80;1705831;83;25775;-84
2021/10/29 08:37:21;;;;;;;9.23;6.15;;;;;;;13.28;62.06;97631.70;1698210;83;25851;-84
2021/10/29 08:39:47;;;;;;;12.10;6.12;;;;;;;13.58;61.25;97631.00;1698443;83;26378;-85
2021/10/29 08:42:14;;;;;;;10.13;6.50;;;;;;;13.82;60.53;97632.81;1695568;83;25733;-85
2021/10/29 08:44:40;;;;;;;11.48;6.45;;;;;;;14.08;59.82;97629.48;1692255;82;28208;-84
2021/10/29 08:47:07;;;;;;;11.28;5.60;;;;;;;14.34;59.39;97629.14;1692082;82;25809;-84
2021/10/29 08:49:35;;;;;;;7.12;5.10;;;;;;;14.58;57.97;97624.66;1692267;82;25756;-86
2021/10/29 08:52:04;;;;;;;10.45;4.90;;;;;;;14.76;56.61;97626.77;1692184;82;26051;-84
2021/10/29 08:54:32;;;;;;;9.43;5.35;;;;;;;14.99;55.39;97630.59;1690735;82;25768;-85
2021/10/29 08:57:00;;;;;;;6.45;5.33;;;;;;;15.18;54.46;97628.09;1675620;83;28269;-86
2021/10/29 08:59:30;;;;;;;8.63;5.12;;;;;;;15.38;53.28;97635.90;1686761;83;25925;-85
2021/10/29 09:35:29;;;;;;;8.88;5.03;;;;;;;17.53;43.23;97619.66;1687091;83;25789;-86
2021/10/29 09:38:12;;;;;;;8.70;6.00;;;;;;;17.71;42.86;97617.77;1689336;83;28287;-86
2021/10/29 09:40:43;;;;;;;11.22;6.50;;;;;;;17.92;41.93;97612.87;1687017;83;25725;-85
2021/10/29 09:43:18;;;;;;;7.55;5.05;;;;;;;18.04;41.31;97608.11;1685442;83;25887;-85
2021/10/29 09:45:56;;;;;;;8.38;5.78;;;;;;;18.13;40.70;97608.48;1687108;83;26140;-85
2021/10/29 09:48:24;;;;;;;8.65;5.33;;;;;;;18.29;40.69;97607.05;1686635;83;25801;-86
2021/10/29 09:50:55;;;;;;;7.55;5.65;;;;;;;18.46;40.29;97604.78;1686895;84;27382;-84
2021/10/29 09:53:38;;;;;;;16.30;9.70;;;;;;;18.58;39.87;97606.86;1687312;84;26311;-85
2021/10/29 09:56:06;;;;;;;9.25;6.72;;;;;;;18.68;38.95;97597.39;1699816;82;25798;-91
2021/10/29 09:58:31;;;;;;;9.48;5.92;;;;;;;18.72;38.51;97597.13;1697947;83;26186;-84
2021/10/29 10:01:00;;;;;;;8.48;5.80;;;;;;;18.76;37.91;97594.18;1698312;83;25332;-85
2021/10/29 10:03:27;;;;;;;8.20;5.15;;;;;;;18.78;37.49;97593.92;1701468;82;27385;-85
2021/10/29 10:05:55;;;;;;;10.13;5.28;;;;;;;18.86;37.55;97591.53;1715934;83;25727;-85
2021/10/29 10:08:27;;;;;;;9.33;4.90;;;;;;;18.94;37.07;97595.19;1678570;83;26579;-86
2021/10/29 10:10:57;;;;;;;6.50;4.65;;;;;;;19.14;37.03;97596.42;1698564;83;25987;-85
2021/10/29 10:13:25;;;;;;;7.20;4.85;;;;;;;19.27;36.67;97594.08;1716316;81;25718;-86
2021/10/29 10:15:55;;;;;;;8.08;5.25;;;;;;;19.41;36.41;97591.72;1698350;83;26821;-86
2021/10/29 10:18:24;;;;;;;9.95;5.25;;;;;;;19.52;36.16;97583.88;1698213;83;26505;-85
2021/10/29 10:20:53;;;;;;;7.65;4.42;;;;;;;19.68;36.36;97580.70;1698422;82;25693;-84
2021/10/29 10:23:27;;;;;;;6.33;4.40;;;;;;;19.80;33.86;97581.86;1698365;83;25995;-83
2021/10/29 10:40:32;;;;;;;7.17;5.40;;;;;;;20.55;33.91;97565.42;1698219;83;25769;-85
2021/10/29 10:46:11;;;;;;;7.28;5.58;;;;;;;20.80;33.32;97559.97;1697973;83;25905;-85
2021/10/29 10:51:37;;;;;;;;;;;;;;;21.18;32.85;97553.98;1701058;83;26093;-86
2021/10/29 10:57:33;;;;;;;6.78;5.37;;;;;;;21.77;33.17;97552.48;1684757;83;27467;-87
2021/10/29 11:00:22;;;;;;;9.98;5.05;;;;;;;22.07;32.67;97546.92;1673963;84;25794;-86
2021/10/29 11:11:19;;;;;;;8.98;5.08;;;;;;;22.71;30.72;97547.91;1696808;82;28167;-84
2021/10/29 11:13:49;;;;;;;9.35;5.47;;;;;;;22.87;30.70;97548.11;1671826;84;25972;-88
2021/10/29 11:16:37;;;;;;;7.20;5.10;;;;;;;22.99;30.20;97546.64;1672290;84;25800;-86
2021/10/29 11:19:17;;;;;;;9.23;5.22;;;;;;;23.14;30.46;97544.88;1682278;82;25997;-90
2021/10/29 11:21:55;;;;;;;8.45;5.97;;;;;;;23.34;29.42;97542.75;1693979;82;25978;-87
2021/10/29 11:24:35;;;;;;;8.45;6.22;;;;;;;23.50;29.70;97539.84;1693878;82;27321;-86
2021/10/29 11:27:18;;;;;;;9.30;6.03;;;;;;;23.58;29.51;97540.61;1662395;84;25860;-86
2021/10/29 11:29:51;;;;;;;8.05;4.80;;;;;;;23.69;29.29;97533.88;1695838;81;25740;-86
2021/10/29 11:32:20;;;;;;;5.67;4.40;;;;;;;23.75;28.97;97534.66;1662866;85;27040;-88
2021/10/29 11:34:51;;;;;;;5.40;4.25;;;;;;;23.85;28.60;97529.02;1692172;82;25859;-90
2021/10/29 11:37:18;;;;;;;10.23;4.80;;;;;;;23.85;28.35;97526.27;1701275;82;27610;-89
2021/10/29 11:39:44;;;;;;;7.45;5.25;;;;;;;23.84;27.98;97528.20;1710627;82;25763;-86
2021/10/29 11:42:11;;;;;;;5.25;4.22;;;;;;;23.86;28.29;97521.02;1694254;83;25272;-89
2021/10/29 11:44:39;;;;;;;6.95;4.85;;;;;;;24.03;28.32;97515.27;1694447;83;26162;-88
2021/10/29 11:47:06;;;;;;;6.70;4.60;;;;;;;24.02;28.03;97513.66;1694482;83;26184;-86
2021/10/29 11:49:33;;;;;;;5.62;4.65;;;;;;;24.14;27.90;97506.89;1694213;84;27017;-91
2021/10/29 11:52:04;;;;;;;7.40;4.60;;;;;;;24.28;28.13;97511.38;1694225;84;25783;-88
2021/10/29 11:54:35;;;;;;;6.53;5.10;;;;;;;24.48;28.15;97508.91;1694200;83;25791;-87
2021/10/29 12:00:19;;;;;;;8.05;4.58;;;;;;;24.48;26.97;97497.88;1684416;84;25859;-86
2021/10/29 12:05:51;;;;;;;6.53;4.70;;;;;;;24.68;27.33;97488.45;1696484;83;25846;-89
2021/10/29 12:08:15;;;;;;;7.50;4.25;;;;;;;24.83;27.04;97492.36;1714045;82;25750;-87
2021/10/29 12:10:44;;;;;;;6.85;4.30;;;;;;;24.98;27.08;97491.33;1696685;83;26181;-85
2021/10/29 12:13:11;;;;;;;5.65;4.12;;;;;;;25.10;26.94;97482.00;1696927;83;25784;-87
2021/10/29 12:15:38;;;;;;;6.35;4.53;;;;;;;25.17;26.74;97486.55;1696808;83;27388;-86
2021/10/29 12:18:06;;;;;;;10.58;5.00;;;;;;;25.20;26.45;97483.76;1696764;83;25830;-87
2021/10/29 12:20:39;;;;;;;5.25;4.45;;;;;;;25.19;26.52;97477.97;1696900;83;25676;-85
2021/10/29 12:23:12;;;;;;;4.78;3.65;;;;;;;25.06;26.07;97481.78;1696935;82;26073;-86
2021/10/29 12:28:17;;;;;;;6.67;4.53;;;;;;;25.11;25.90;97478.12;1696427;83;55110;-87
2021/10/29 12:30:52;;;;;;;10.93;6.42;;;;;;;25.19;25.35;97474.65;1696885;82;25775;-86
2021/10/29 12:53:21;;;;;;;4.53;4.08;;;;;;;25.75;25.18;97451.48;1694770;83;25787;-88
2021/10/29 13:04:17;;;;;;;6.58;3.77;;;;;;;26.39;24.79;97445.41;1674457;84;26784;-85
2021/10/29 13:06:49;;;;;;;5.80;4.37;;;;;;;26.50;24.83;97446.23;1689724;84;25739;-88
2021/10/29 13:09:28;;;;;;;5.85;4.67;;;;;;;26.60;24.65;97443.78;1690149;84;28246;-87
2021/10/29 13:12:17;;;;;;;6.67;4.33;;;;;;;26.69;24.81;97444.66;1690002;84;25915;-86
2021/10/29 13:14:38;;;;;;;6.40;4.40;;;;;;;26.73;24.75;97445.67;1687137;84;25763;-88
2021/10/29 13:17:08;;;;;;;5.28;4.03;;;;;;;26.60;24.25;97438.24;1690112;84;26012;-90
2021/10/29 13:19:46;;;;;;;4.35;3.95;;;;;;;26.60;24.46;97431.33;1689860;84;25787;-86
2021/10/29 13:25:06;;;;;;;7.62;5.70;;;;;;;26.65;23.90;97435.36;1681646;85;25761;-88
2021/10/29 13:35:42;;;;;;;9.73;5.58;;;;;;;26.39;24.35;97426.03;1684021;83;28309;-86
2021/10/29 13:51:42;;;;;;;9.45;6.72;;;;;;;26.25;24.09;97416.92;1684383;84;25807;-88
2021/10/29 14:01:57;;;;;;;13.22;9.43;;;;;;;25.80;24.25;97414.88;1686403;84;27474;-88
2021/10/29 14:29:17;;;;;;;22.30;11.15;;;;;;;22.93;27.79;97402.48;1679631;84;28422;-87
2021/10/29 14:31:57;;;;;;;22.70;11.93;;;;;;;22.60;28.32;97402.18;1680547;83;25887;-86
2021/10/29 14:34:28;;;;;;;27.30;11.73;;;;;;;22.35;28.44;97403.77;1682850;83;25769;-88
2021/10/29 14:36:59;;;;;;;21.77;11.25;;;;;;;22.12;29.12;97403.11;1698135;83;26571;-86
2021/10/29 14:39:30;;;;;;;19.93;10.80;;;;;;;21.73;29.36;97408.56;1687294;83;26409;-88
2021/10/29 14:44:29;;;;;;;18.32;9.58;;;;;;;21.12;30.27;97407.40;1688584;83;26445;-86
2021/10/29 14:49:38;;;;;;;14.95;8.25;;;;;;;20.47;31.34;97411.32;1659808;84;26019;-87
2021/10/29 15:05:38;;;;;;;24.40;13.72;;;;;;;18.38;34.18;97420.75;1691503;83;25783;-87
2021/10/29 15:16:29;;;;;;;41.23;17.57;;;;;;;17.54;36.11;97417.16;1662129;84;26091;-86
2021/10/29 15:43:17;;;;;;;53.33;30.32;;;;;;;15.30;39.98;97433.13;1662103;84;26331;-86
2021/10/29 15:45:38;;;;;;;46.28;29.18;;;;;;;15.04;40.17;97429.03;1661188;84;25314;-86
2021/10/29 15:48:09;;;;;;;50.35;30.08;;;;;;;14.71;40.61;97437.82;1662079;84;28200;-86
2021/10/29 15:50:35;;;;;;;50.03;30.52;;;;;;;14.62;41.09;97436.50;1661980;84;26315;-85
2021/10/29 15:53:03;;;;;;;61.73;33.98;;;;;;;14.44;41.36;97435.80;1662114;84;25673;-86
2021/10/29 15:55:52;;;;;;;55.15;33.02;;;;;;;14.24;41.63;97438.82;1662186;84;25994;-86
2021/10/29 15:58:22;;;;;;;54.43;33.67;;;;;;;14.24;42.08;97433.39;1659472;83;25726;-86
2021/10/29 16:03:16;;;;;;;61.98;34.95;;;;;;;14.22;42.42;97444.48;1691499;83;25949;-86
2021/10/29 16:19:24;;;;;;;152.70;88.90;;;;;;;13.42;43.64;97437.17;1691919;83;25796;-86